Time;durP1;ratioP1;P1;durP2;ratioP2;P2;SDS_P1;SDS_P2;PMS_P1;PMS_P2;Temp;Humidity;BMP_temperature;BMP_pressure;BME280_temperature;BME280_humidity;BME280_pressure;Samples;Min_cycle;Max_cycle;Signal;HPM_P1;HPM_P2
2022/04/25 00:00:46;;;;;;;;;;;8.70;99.90;;;;;;5093400;28;19985;-75
2022/04/25 00:03:11;;;;;;;;;;;8.60;99.90;;;;;;5093613;28;19923;-75
2022/04/25 00:05:37;;;;;;;;;;;9.90;99.90;;;;;;5092680;28;19920;-75
2022/04/25 00:08:03;;;;;;;;;;;8.50;99.90;;;;;;5092853;28;19920;-75
2022/04/25 00:10:28;;;;;;;;;;;8.50;99.90;;;;;;5093752;28;19924;-75
2022/04/25 00:12:54;;;;;;;;;;;9.20;99.90;;;;;;5092900;28;20426;-74
2022/04/25 00:15:20;;;;;;;;;;;8.50;99.90;;;;;;5093496;28;20406;-75
2022/04/25 00:17:46;;;;;;;;;;;9.40;99.90;;;;;;5091965;28;20325;-75
2022/04/25 00:20:13;;;;;;;;;;;8.60;99.90;;;;;;5106290;28;19924;-75
2022/04/25 00:22:38;;;;;;;;;;;8.60;99.90;;;;;;5072215;28;19920;-75
2022/04/25 00:25:04;;;;;;;;;;;8.60;99.90;;;;;;5087985;28;20279;-75
2022/04/25 00:27:30;;;;;;;;;;;8.70;99.90;;;;;;5109383;28;20375;-76
2022/04/25 00:29:55;;;;;;;;;;;8.70;99.90;;;;;;5110322;28;19920;-75
2022/04/25 00:32:21;;;;;;;;;;;8.60;99.90;;;;;;5091596;28;20334;-75
2022/04/25 00:34:46;;;;;;;;;;;8.80;99.90;;;;;;5093800;28;19947;-75
2022/04/25 00:37:12;;;;;;;;;;;8.80;99.90;;;;;;5093811;28;19931;-76
2022/04/25 00:39:37;;;;;;;;;;;8.80;99.90;;;;;;5092053;28;19924;-75
2022/04/25 00:42:03;;;;;;;;;;;8.80;99.90;;;;;;5092127;28;19920;-75
2022/04/25 00:44:28;;;;;;;;;;;8.80;99.90;;;;;;5092422;28;19942;-75
2022/04/25 00:46:55;;;;;;;;;;;8.80;99.90;;;;;;5093109;28;20275;-75
2022/04/25 00:49:21;;;;;;;;;;;8.80;99.90;;;;;;5091673;28;19920;-75
2022/04/25 00:51:47;;;;;;;;;;;8.90;99.90;;;;;;5093172;28;19959;-75
2022/04/25 00:54:13;;;;;;;;;;;8.90;99.90;;;;;;5092228;28;19959;-75
2022/04/25 00:56:38;;;;;;;;;;;8.90;99.90;;;;;;5092342;28;20302;-75
2022/04/25 00:59:04;;;;;;;;;;;8.90;99.90;;;;;;5093141;28;19920;-75
2022/04/25 01:01:31;;;;;;;;;;;8.90;99.90;;;;;;5093209;28;20007;-76
2022/04/25 01:03:57;;;;;;;;;;;8.90;99.90;;;;;;5092527;28;20291;-75
2022/04/25 01:06:22;;;;;;;;;;;8.90;99.90;;;;;;5091963;28;19928;-75
2022/04/25 01:08:50;;;;;;;;;;;8.90;99.90;;;;;;5092090;28;19927;-75
2022/04/25 01:11:16;;;;;;;;;;;9.00;99.90;;;;;;5093231;28;19920;-75
2022/04/25 01:13:43;;;;;;;;;;;9.00;99.90;;;;;;5092390;28;19927;-75
2022/04/25 01:16:08;;;;;;;;;;;9.00;99.90;;;;;;5091688;28;19977;-75
2022/04/25 01:18:34;;;;;;;;;;;9.00;99.90;;;;;;5091875;28;19920;-75
2022/04/25 01:20:59;;;;;;;;;;;9.00;99.90;;;;;;5091011;28;20426;-75
2022/04/25 01:28:53;;;;;;;;;;;9.00;99.90;;;;;;5090945;28;20283;-75
2022/04/25 01:31:19;;;;;;;;;;;9.00;99.90;;;;;;5091804;28;19927;-75
2022/04/25 01:33:45;;;;;;;;;;;9.00;99.90;;;;;;5092375;28;19916;-75
2022/04/25 01:36:11;;;;;;;;;;;9.00;99.90;;;;;;5108162;28;19927;-75
2022/04/25 01:38:36;;;;;;;;;;;9.00;99.90;;;;;;5093153;28;20024;-75
2022/04/25 01:41:02;;;;;;;;;;;9.00;99.90;;;;;;5108734;28;19924;-75
2022/04/25 01:43:27;;;;;;;;;;;9.00;99.90;;;;;;5091103;28;19920;-75
2022/04/25 01:45:52;;;;;;;;;;;9.00;99.90;;;;;;5092782;28;19920;-75
2022/04/25 01:48:18;;;;;;;;;;;8.90;99.90;;;;;;5090852;28;19978;-75
2022/04/25 01:50:43;;;;;;;;;;;9.00;99.90;;;;;;5090731;28;20006;-75
2022/04/25 01:53:09;;;;;;;;;;;9.00;99.90;;;;;;5091300;28;19920;-75
2022/04/25 01:55:34;;;;;;;;;;;8.90;99.90;;;;;;5092817;28;20279;-75
2022/04/25 01:58:00;;;;;;;;;;;8.90;99.90;;;;;;5091998;28;19920;-75
2022/04/25 02:00:26;;;;;;;;;;;8.90;99.90;;;;;;5091405;28;19919;-75
2022/04/25 02:02:51;;;;;;;;;;;8.90;99.90;;;;;;5090052;28;19958;-75
2022/04/25 02:05:17;;;;;;;;;;;8.90;99.90;;;;;;5111786;28;19927;-75
2022/04/25 02:07:42;;;;;;;;;;;8.80;99.90;;;;;;5096991;28;20011;-75
2022/04/25 02:10:08;;;;;;;;;;;8.80;99.90;;;;;;5095956;28;19920;-75
2022/04/25 02:12:34;;;;;;;;;;;8.80;99.90;;;;;;5096750;28;19927;-75
2022/04/25 02:15:00;;;;;;;;;;;8.80;99.90;;;;;;5094813;28;19965;-75
2022/04/25 02:17:26;;;;;;;;;;;8.80;99.90;;;;;;5094660;28;20364;-75
2022/04/25 02:19:51;;;;;;;;;;;8.80;99.90;;;;;;5095811;28;20018;-75
2022/04/25 02:22:17;;;;;;;;;;;8.80;99.90;;;;;;5094906;28;19924;-75
2022/04/25 02:24:43;;;;;;;;;;;8.80;99.90;;;;;;5095815;28;19959;-75
2022/04/25 02:27:09;;;;;;;;;;;8.80;99.90;;;;;;5096049;28;19966;-75
2022/04/25 02:29:35;;;;;;;;;;;8.70;99.90;;;;;;5096123;28;20076;-75
2022/04/25 02:32:01;;;;;;;;;;;8.70;99.90;;;;;;5095683;28;19919;-75
2022/04/25 02:34:28;;;;;;;;;;;8.70;99.90;;;;;;5096148;28;19916;-75
2022/04/25 02:36:55;;;;;;;;;;;8.60;99.90;;;;;;5094807;28;20320;-75
2022/04/25 02:39:22;;;;;;;;;;;8.60;99.90;;;;;;5095408;28;19915;-76
2022/04/25 02:41:47;;;;;;;;;;;8.60;99.90;;;;;;5096269;28;19920;-75
2022/04/25 02:44:12;;;;;;;;;;;8.50;99.90;;;;;;5095730;28;19927;-75
2022/04/25 02:46:38;;;;;;;;;;;8.50;99.90;;;;;;5095616;28;19920;-75
2022/04/25 02:49:03;;;;;;;;;;;8.50;99.90;;;;;;5095663;28;19959;-75
2022/04/25 02:51:29;;;;;;;;;;;8.40;99.90;;;;;;5094670;28;19920;-75
2022/04/25 02:53:54;;;;;;;;;;;8.30;99.90;;;;;;5094017;28;20268;-75
2022/04/25 02:56:20;;;;;;;;;;;8.30;99.90;;;;;;5094450;28;20444;-75
2022/04/25 02:58:45;;;;;;;;;;;8.20;99.90;;;;;;5094442;28;19920;-75
2022/04/25 03:01:11;;;;;;;;;;;8.10;99.90;;;;;;5093293;28;19923;-75
2022/04/25 03:03:37;;;;;;;;;;;8.10;99.90;;;;;;5095619;28;19920;-75
2022/04/25 03:06:03;;;;;;;;;;;8.10;99.90;;;;;;5110660;28;19967;-75
2022/04/25 03:08:29;;;;;;;;;;;8.30;99.90;;;;;;5094628;28;20002;-75
2022/04/25 03:10:55;;;;;;;;;;;8.00;99.90;;;;;;5111667;28;20431;-75
2022/04/25 03:13:21;;;;;;;;;;;8.00;99.90;;;;;;5094552;28;19977;-75
2022/04/25 03:15:47;;;;;;;;;;;8.00;99.90;;;;;;5094446;28;20393;-75
2022/04/25 03:18:14;;;;;;;;;;;8.00;99.90;;;;;;5094922;28;19931;-75
2022/04/25 03:20:41;;;;;;;;;;;8.00;99.90;;;;;;5110546;28;19920;-75
2022/04/25 03:23:07;;;;;;;;;;;8.10;99.90;;;;;;5095150;28;20061;-75
2022/04/25 03:25:32;;;;;;;;;;;8.10;99.90;;;;;;5093955;28;20404;-75
2022/04/25 03:27:58;;;;;;;;;;;8.20;99.90;;;;;;5109796;28;19942;-75
2022/04/25 03:30:24;;;;;;;;;;;9.10;99.90;;;;;;5094031;28;19958;-75
2022/04/25 03:32:50;;;;;;;;;;;8.20;99.90;;;;;;5104286;28;19956;-74
2022/04/25 03:35:17;;;;;;;;;;;8.30;99.90;;;;;;5089561;28;19921;-75
2022/04/25 03:37:43;;;;;;;;;;;8.30;99.90;;;;;;5073814;28;19924;-76
2022/04/25 03:40:12;;;;;;;;;;;8.70;99.90;;;;;;5074649;28;19920;-75
2022/04/25 03:42:38;;;;;;;;;;;8.40;99.90;;;;;;5074027;28;19939;-76
2022/04/25 03:45:10;;;;;;;;;;;8.40;99.90;;;;;;5074138;28;20368;-75
2022/04/25 03:47:36;;;;;;;;;;;8.40;99.90;;;;;;5073473;28;20398;-75
2022/04/25 03:50:08;;;;;;;;;;;8.40;99.90;;;;;;5089311;28;19986;-76
2022/04/25 03:52:37;;;;;;;;;;;8.50;99.90;;;;;;5076697;28;19921;-75
2022/04/25 03:57:51;;;;;;;;;;;8.50;99.90;;;;;;5108497;28;19920;-75
2022/04/25 04:00:16;;;;;;;;;;;8.50;99.90;;;;;;5093225;28;20291;-75
2022/04/25 04:02:43;;;;;;;;;;;8.50;99.90;;;;;;5094146;28;19974;-75
2022/04/25 04:05:08;;;;;;;;;;;8.60;99.90;;;;;;5092811;28;20360;-75
2022/04/25 04:07:34;;;;;;;;;;;8.60;99.90;;;;;;5109767;28;19927;-75
2022/04/25 04:09:59;;;;;;;;;;;8.60;99.90;;;;;;5093617;28;19919;-75
2022/04/25 04:12:29;;;;;;;;;;;8.60;99.90;;;;;;5077181;28;19920;-76
2022/04/25 04:14:55;;;;;;;;;;;9.10;99.90;;;;;;5073806;28;20372;-76
2022/04/25 04:17:20;;;;;;;;;;;8.60;99.90;;;;;;5071864;28;19946;-75
2022/04/25 04:19:46;;;;;;;;;;;8.60;99.90;;;;;;5072915;28;20283;-75
2022/04/25 04:22:12;;;;;;;;;;;8.60;99.90;;;;;;5073594;28;20483;-75
2022/04/25 04:24:38;;;;;;;;;;;8.60;99.90;;;;;;5071567;28;20019;-75
2022/04/25 04:27:04;;;;;;;;;;;8.60;99.90;;;;;;5072511;28;19975;-75
2022/04/25 04:29:30;;;;;;;;;;;8.60;99.90;;;;;;5074382;28;19990;-75
2022/04/25 04:32:02;;;;;;;;;;;8.60;99.90;;;;;;5073335;28;19955;-75
2022/04/25 04:34:28;;;;;;;;;;;8.60;99.90;;;;;;5073311;28;20007;-75
2022/04/25 04:36:54;;;;;;;;;;;8.60;99.90;;;;;;5089256;28;19994;-75
2022/04/25 04:39:20;;;;;;;;;;;8.60;99.90;;;;;;5071440;28;19916;-75
2022/04/25 04:41:45;;;;;;;;;;;8.60;99.90;;;;;;5073698;28;20364;-75
2022/04/25 04:44:11;;;;;;;;;;;8.60;99.90;;;;;;5074083;28;20288;-75
2022/04/25 04:46:37;;;;;;;;;;;8.60;99.90;;;;;;5072910;28;19935;-75
2022/04/25 04:49:02;;;;;;;;;;;8.60;99.90;;;;;;5079886;28;19931;-75
2022/04/25 04:51:28;;;;;;;;;;;8.60;99.90;;;;;;5082923;28;20021;-75
2022/04/25 04:53:53;;;;;;;;;;;8.70;99.90;;;;;;5082813;28;19924;-73
2022/04/25 04:56:19;;;;;;;;;;;8.70;99.90;;;;;;5097384;28;19943;-74
2022/04/25 04:58:45;;;;;;;;;;;8.70;99.90;;;;;;5081950;28;20005;-75
2022/04/25 05:01:11;;;;;;;;;;;8.70;99.90;;;;;;5079475;28;19926;-75
2022/04/25 05:03:37;;;;;;;;;;;8.70;99.90;;;;;;5091727;28;20306;-74
2022/04/25 05:06:03;;;;;;;;;;;8.70;99.90;;;;;;5070536;28;19931;-74
2022/04/25 05:08:28;;;;;;;;;;;8.70;99.90;;;;;;5086292;28;19924;-73
2022/04/25 05:10:54;;;;;;;;;;;8.70;99.90;;;;;;5082931;28;20018;-73
2022/04/25 05:13:20;;;;;;;;;;;8.70;99.90;;;;;;5079333;28;19920;-73
2022/04/25 05:15:46;;;;;;;;;;;8.70;99.90;;;;;;5078399;28;19935;-73
2022/04/25 05:18:12;;;;;;;;;;;8.70;99.90;;;;;;5073432;28;20003;-75
2022/04/25 05:20:37;;;;;;;;;;;8.80;99.90;;;;;;5070721;28;20014;-75
2022/04/25 05:23:03;;;;;;;;;;;8.80;99.90;;;;;;5071160;28;19973;-75
2022/04/25 05:25:29;;;;;;;;;;;8.70;99.90;;;;;;5072224;28;20303;-75
2022/04/25 05:27:55;;;;;;;;;;;8.70;99.90;;;;;;5072160;28;20366;-75
2022/04/25 05:30:22;;;;;;;;;;;8.70;99.90;;;;;;5072612;28;19920;-75
2022/04/25 05:32:51;;;;;;;;;;;8.80;99.90;;;;;;5090992;28;19924;-75
2022/04/25 05:35:19;;;;;;;;;;;8.80;99.90;;;;;;5107969;28;19965;-78
2022/04/25 05:37:45;;;;;;;;;;;8.80;99.90;;;;;;5091278;28;19920;-79
2022/04/25 05:40:11;;;;;;;;;;;8.80;99.90;;;;;;5091167;28;19920;-77
2022/04/25 05:42:38;;;;;;;;;;;8.80;99.90;;;;;;5091003;28;19920;-79
2022/04/25 05:45:04;;;;;;;;;;;8.80;99.90;;;;;;5091294;28;19943;-79
2022/04/25 05:47:30;;;;;;;;;;;8.80;99.90;;;;;;5092672;28;19920;-82
2022/04/25 05:52:40;;;;;;;;;;;8.80;99.90;;;;;;5092678;28;20360;-84
2022/04/25 05:55:06;;;;;;;;;;;8.90;99.90;;;;;;5104026;28;19927;-84
2022/04/25 05:57:31;;;;;;;;;;;8.90;99.90;;;;;;5091104;28;20062;-79
2022/04/25 05:59:57;;;;;;;;;;;8.90;99.90;;;;;;5091263;28;19920;-78
2022/04/25 06:02:22;;;;;;;;;;;9.00;99.90;;;;;;5091041;28;20379;-77
2022/04/25 06:04:48;;;;;;;;;;;9.00;99.90;;;;;;5084734;28;19920;-78
2022/04/25 06:07:13;;;;;;;;;;;9.10;99.90;;;;;;5075992;28;19920;-78
2022/04/25 06:09:39;;;;;;;;;;;9.00;99.90;;;;;;5071093;28;20010;-78
2022/04/25 06:12:05;;;;;;;;;;;9.00;99.90;;;;;;5072184;28;19999;-78
2022/04/25 06:14:34;;;;;;;;;;;9.00;99.90;;;;;;5072445;28;19986;-78
2022/04/25 06:17:00;;;;;;;;;;;9.00;99.90;;;;;;5070178;28;19928;-78
2022/04/25 06:19:25;;;;;;;;;;;9.10;99.90;;;;;;5072688;28;19973;-78
2022/04/25 06:21:53;;;;;;;;;;;9.20;99.90;;;;;;5088309;28;20297;-77
2022/04/25 06:24:19;;;;;;;;;;;9.20;99.90;;;;;;5084559;28;19965;-77
2022/04/25 06:26:49;;;;;;;;;;;9.30;99.90;;;;;;5108440;28;19920;-77
2022/04/25 06:29:15;;;;;;;;;;;9.30;99.90;;;;;;5090669;28;19981;-77
2022/04/25 06:31:41;;;;;;;;;;;9.40;99.90;;;;;;5091885;28;20379;-78
2022/04/25 06:34:06;;;;;;;;;;;9.50;99.90;;;;;;5107746;28;19916;-78
2022/04/25 06:36:32;;;;;;;;;;;9.60;99.90;;;;;;5090738;28;19954;-77
2022/04/25 06:38:58;;;;;;;;;;;9.60;99.90;;;;;;5091400;28;19920;-78
2022/04/25 06:41:23;;;;;;;;;;;9.60;99.90;;;;;;5091272;28;20303;-78
2022/04/25 06:43:49;;;;;;;;;;;9.60;99.90;;;;;;5092005;28;19931;-77
2022/04/25 06:46:14;;;;;;;;;;;9.60;99.90;;;;;;5091373;28;19920;-78
2022/04/25 06:48:40;;;;;;;;;;;9.70;99.90;;;;;;5091147;28;19990;-77
2022/04/25 06:51:05;;;;;;;;;;;9.70;99.90;;;;;;5091248;28;19920;-77
2022/04/25 06:53:31;;;;;;;;;;;9.80;99.90;;;;;;5089327;28;19920;-78
2022/04/25 06:55:56;;;;;;;;;;;9.80;99.90;;;;;;5094382;28;20321;-78
2022/04/25 06:58:22;;;;;;;;;;;9.80;99.90;;;;;;5094280;28;20265;-77
2022/04/25 07:00:48;;;;;;;;;;;9.80;99.90;;;;;;5092773;28;19920;-78
2022/04/25 07:03:14;;;;;;;;;;;10.20;99.90;;;;;;5093045;28;19927;-76
2022/04/25 07:05:42;;;;;;;;;;;9.80;99.90;;;;;;5101231;28;19927;-78
2022/04/25 07:08:07;;;;;;;;;;;9.90;99.90;;;;;;5093066;28;20719;-79
2022/04/25 07:10:33;;;;;;;;;;;9.90;99.90;;;;;;5093071;28;19924;-79
2022/04/25 07:12:59;;;;;;;;;;;10.00;99.90;;;;;;5093368;28;19981;-76
2022/04/25 07:15:25;;;;;;;;;;;10.00;99.90;;;;;;5087455;28;20424;-76
2022/04/25 07:17:55;;;;;;;;;;;10.10;99.90;;;;;;5092925;28;19920;-77
2022/04/25 07:20:21;;;;;;;;;;;10.00;99.90;;;;;;5092180;28;20367;-77
2022/04/25 07:30:58;;;;;;;;;;;10.00;99.90;;;;;;5094339;28;19919;-81
2022/04/25 07:33:26;;;;;;;;;;;10.00;99.90;;;;;;5093810;28;19926;-74
2022/04/25 07:35:53;;;;;;;;;;;10.00;99.90;;;;;;5089966;28;21316;-77
2022/04/25 07:38:19;;;;;;;;;;;10.00;99.90;;;;;;5090052;28;19920;-75
2022/04/25 07:40:44;;;;;;;;;;;10.40;99.90;;;;;;5091037;28;19926;-74
2022/04/25 07:43:10;;;;;;;;;;;10.90;99.90;;;;;;5080170;28;19920;-82
2022/04/25 07:45:36;;;;;;;;;;;11.10;99.90;;;;;;5090888;28;20023;-89
2022/04/25 07:48:01;;;;;;;;;;;11.10;99.90;;;;;;5090965;28;19920;-77
2022/04/25 07:50:27;;;;;;;;;;;11.90;99.90;;;;;;5092154;28;19923;-77
2022/04/25 07:52:52;;;;;;;;;;;10.90;99.90;;;;;;5092329;28;19924;-74
2022/04/25 07:55:18;;;;;;;;;;;10.90;99.90;;;;;;5085381;28;19920;-75
2022/04/25 07:57:45;;;;;;;;;;;10.90;99.90;;;;;;5088202;28;19924;-74
2022/04/25 08:00:10;;;;;;;;;;;11.10;99.90;;;;;;5091578;28;19920;-74
2022/04/25 08:02:36;;;;;;;;;;;11.40;99.90;;;;;;5081849;28;19927;-74
2022/04/25 08:05:02;;;;;;;;;;;11.80;99.90;;;;;;5076932;28;19927;-74
2022/04/25 08:07:28;;;;;;;;;;;12.30;99.90;;;;;;5071368;28;19920;-74
2022/04/25 08:09:53;;;;;;;;;;;12.00;99.90;;;;;;5071063;28;19921;-74
2022/04/25 08:17:59;;;;;;;;;;;12.00;99.90;;;;;;5072440;28;19929;-74
2022/04/25 08:20:26;;;;;;;;;;;12.10;99.90;;;;;;5072984;28;19963;-75
2022/04/25 08:22:52;;;;;;;;;;;12.20;99.90;;;;;;5072128;28;19942;-75
2022/04/25 08:25:18;;;;;;;;;;;12.30;99.90;;;;;;5072287;28;20415;-74
2022/04/25 08:27:43;;;;;;;;;;;12.60;99.90;;;;;;5072190;28;19970;-74
2022/04/25 08:30:11;;;;;;;;;;;12.80;99.90;;;;;;5074001;28;19927;-74
2022/04/25 08:32:37;;;;;;;;;;;13.10;99.90;;;;;;5073782;28;19925;-74
2022/04/25 08:35:02;;;;;;;;;;;12.90;99.90;;;;;;5071965;28;19942;-74
2022/04/25 08:37:28;;;;;;;;;;;12.80;99.90;;;;;;5071579;28;19920;-74
2022/04/25 08:39:54;;;;;;;;;;;13.00;99.90;;;;;;5089159;28;19916;-74
2022/04/25 08:42:20;;;;;;;;;;;13.40;99.90;;;;;;5072074;28;19997;-74
2022/04/25 08:44:49;;;;;;;;;;;13.90;99.90;;;;;;5072952;28;20379;-74
2022/04/25 08:47:14;;;;;;;;;;;15.00;99.90;;;;;;5083670;28;20448;-74
2022/04/25 08:49:40;;;;;;;;;;;15.40;99.90;;;;;;5092287;28;19967;-74
2022/04/25 08:52:05;;;;;;;;;;;15.10;99.90;;;;;;5108616;28;20001;-74
2022/04/25 08:54:31;;;;;;;;;;;14.80;99.90;;;;;;5092563;28;20413;-74
2022/04/25 08:56:57;;;;;;;;;;;14.50;99.90;;;;;;5092219;28;20006;-75
2022/04/25 08:59:23;;;;;;;;;;;14.40;99.90;;;;;;5105644;28;19959;-74
2022/04/25 09:01:49;;;;;;;;;;;14.80;99.90;;;;;;5091636;28;19988;-76
2022/04/25 09:04:14;;;;;;;;;;;15.00;99.90;;;;;;5088931;28;19926;-77
2022/04/25 09:06:40;;;;;;;;;;;14.70;99.90;;;;;;5091454;28;19920;-79
2022/04/25 09:09:06;;;;;;;;;;;14.40;99.90;;;;;;5080681;28;20364;-79
2022/04/25 09:14:16;;;;;;;;;;;13.70;99.90;;;;;;5071695;28;19920;-78
2022/04/25 09:16:42;;;;;;;;;;;13.60;99.90;;;;;;5073255;28;20041;-79
2022/04/25 09:19:07;;;;;;;;;;;13.50;99.90;;;;;;5077228;28;19963;-79
2022/04/25 09:21:42;;;;;;;;;;;13.50;99.90;;;;;;5090985;28;19924;-74
2022/04/25 09:24:23;;;;;;;;;;;13.50;99.90;;;;;;5095228;28;19920;-80
2022/04/25 09:26:53;;;;;;;;;;;13.50;99.90;;;;;;5073629;28;19929;-79
2022/04/25 09:29:26;;;;;;;;;;;13.40;99.90;;;;;;5071141;28;19921;-77
2022/04/25 09:31:51;;;;;;;;;;;13.30;99.90;;;;;;5077144;28;19924;-75
2022/04/25 09:34:59;;;;;;;;;;;13.50;99.90;;;;;;5090905;28;19928;-77
2022/04/25 09:37:02;;;;;;;;;;;13.70;99.90;;;;;;5088875;28;19920;-75
2022/04/25 09:39:30;;;;;;;;;;;14.00;99.90;;;;;;5085361;28;19924;-79
2022/04/25 09:41:56;;;;;;;;;;;14.60;99.90;;;;;;5086281;28;19936;-75
2022/04/25 09:44:22;;;;;;;;;;;15.50;99.90;;;;;;5078831;28;19920;-77
2022/04/25 09:46:47;;;;;;;;;;;16.00;99.90;;;;;;5083235;28;19920;-76
2022/04/25 09:49:18;;;;;;;;;;;16.00;99.90;;;;;;5073967;28;19924;-74
2022/04/25 09:52:03;;;;;;;;;;;16.00;99.90;;;;;;5091628;28;19920;-78
2022/04/25 09:54:29;;;;;;;;;;;15.80;99.90;;;;;;5090346;28;19927;-81
2022/04/25 09:56:55;;;;;;;;;;;15.50;99.80;;;;;;5092563;28;19920;-80
2022/04/25 09:59:23;;;;;;;;;;;15.30;99.90;;;;;;5092118;28;19926;-81
2022/04/25 10:02:06;;;;;;;;;;;15.50;99.90;;;;;;5090369;28;19930;-81
2022/04/25 10:04:36;;;;;;;;;;;16.20;99.90;;;;;;5091668;28;19965;-79
2022/04/25 10:07:04;;;;;;;;;;;16.30;99.80;;;;;;5072589;28;19920;-77
2022/04/25 10:09:30;;;;;;;;;;;16.20;99.60;;;;;;5089440;28;20295;-79
2022/04/25 10:12:00;;;;;;;;;;;15.50;99.70;;;;;;5091314;28;19923;-76
2022/04/25 10:14:26;;;;;;;;;;;15.00;99.90;;;;;;5090508;28;20398;-78
2022/04/25 10:16:52;;;;;;;;;;;14.80;99.90;;;;;;5087197;28;19920;-73
2022/04/25 10:19:18;;;;;;;;;;;14.70;99.90;;;;;;5087768;28;20296;-76
2022/04/25 10:21:45;;;;;;;;;;;14.50;99.90;;;;;;5089537;28;19980;-76
2022/04/25 10:24:10;;;;;;;;;;;14.20;99.90;;;;;;5078020;28;19920;-77
2022/04/25 10:26:37;;;;;;;;;;;14.00;99.90;;;;;;5092587;28;20015;-77
2022/04/25 10:29:08;;;;;;;;;;;13.80;99.90;;;;;;5094830;28;19967;-78
2022/04/25 10:31:44;;;;;;;;;;;13.70;99.90;;;;;;5086895;28;19970;-74
2022/04/25 10:34:10;;;;;;;;;;;13.60;99.90;;;;;;5091204;28;19920;-73
2022/04/25 10:36:39;;;;;;;;;;;13.50;99.90;;;;;;5092728;28;20023;-77
2022/04/25 10:39:12;;;;;;;;;;;13.50;99.90;;;;;;5094919;28;20375;-76
2022/04/25 10:44:23;;;;;;;;;;;13.30;99.90;;;;;;5083081;28;20164;-76
2022/04/25 10:47:16;;;;;;;;;;;13.40;99.90;;;;;;5107703;28;20467;-76
2022/04/25 10:49:44;;;;;;;;;;;13.40;99.90;;;;;;5088808;28;20007;-76
2022/04/25 10:52:28;;;;;;;;;;;13.60;99.90;;;;;;5093464;28;20006;-76
2022/04/25 10:55:11;;;;;;;;;;;13.70;99.90;;;;;;5090249;28;19920;-75
2022/04/25 10:57:36;;;;;;;;;;;13.90;99.90;;;;;;5094898;28;19973;-80
2022/04/25 11:00:22;;;;;;;;;;;13.90;99.90;;;;;;5094722;28;20279;-78
2022/04/25 11:03:10;;;;;;;;;;;14.10;99.90;;;;;;5091861;28;19942;-80
2022/04/25 11:05:36;;;;;;;;;;;14.30;99.90;;;;;;5094169;28;19951;-80
2022/04/25 11:08:20;;;;;;;;;;;14.30;99.90;;;;;;5093580;28;20375;-79
2022/04/25 11:10:47;;;;;;;;;;;14.20;99.90;;;;;;5106015;28;19925;-80
2022/04/25 11:13:13;;;;;;;;;;;14.40;99.90;;;;;;5086354;28;19920;-80
2022/04/25 11:15:39;;;;;;;;;;;14.30;99.90;;;;;;5077969;28;19927;-73
2022/04/25 11:18:28;;;;;;;;;;;14.30;99.90;;;;;;5078997;28;19920;-78
2022/04/25 11:20:54;;;;;;;;;;;14.30;99.90;;;;;;5098463;28;20549;-74
2022/04/25 11:23:26;;;;;;;;;;;14.30;99.90;;;;;;5101159;28;20315;-78
2022/04/25 11:25:53;;;;;;;;;;;14.30;99.90;;;;;;5099229;28;20014;-86
2022/04/25 11:28:19;;;;;;;;;;;14.30;99.90;;;;;;5083454;28;19924;-80
2022/04/25 11:30:44;;;;;;;;;;;14.30;99.90;;;;;;5083596;28;20414;-78
2022/04/25 11:33:11;;;;;;;;;;;14.40;99.90;;;;;;5082631;28;19924;-79
2022/04/25 11:35:39;;;;;;;;;;;14.50;99.90;;;;;;5084888;28;20295;-86
2022/04/25 11:38:05;;;;;;;;;;;14.60;99.90;;;;;;5082992;28;20672;-83
2022/04/25 11:40:30;;;;;;;;;;;14.70;99.90;;;;;;5078872;28;19930;-84
2022/04/25 11:42:59;;;;;;;;;;;14.90;99.90;;;;;;5095221;28;19924;-81
2022/04/25 11:45:25;;;;;;;;;;;14.80;99.90;;;;;;5080584;28;20280;-84
2022/04/25 11:47:50;;;;;;;;;;;14.80;99.90;;;;;;5081264;28;19931;-82
2022/04/25 11:50:18;;;;;;;;;;;14.90;99.90;;;;;;5083097;28;19919;-80
2022/04/25 11:52:47;;;;;;;;;;;15.50;99.90;;;;;;5099786;28;20459;-76
2022/04/25 11:55:14;;;;;;;;;;;15.00;99.90;;;;;;5088209;28;19928;-81
2022/04/25 11:57:40;;;;;;;;;;;14.90;99.90;;;;;;5087693;28;19932;-78
2022/04/25 12:00:10;;;;;;;;;;;14.90;99.90;;;;;;5095968;28;20022;-79
2022/04/25 12:02:37;;;;;;;;;;;15.00;99.90;;;;;;5074874;28;19924;-78
2022/04/25 12:05:04;;;;;;;;;;;15.20;99.90;;;;;;5085404;28;20295;-81
2022/04/25 12:07:30;;;;;;;;;;;15.20;99.90;;;;;;5086126;28;19950;-73
2022/04/25 12:18:09;;;;;;;;;;;15.00;99.90;;;;;;5085944;28;20284;-73
2022/04/25 12:20:35;;;;;;;;;;;15.10;99.90;;;;;;5090843;28;19920;-74
2022/04/25 12:23:00;;;;;;;;;;;15.80;99.90;;;;;;5091517;28;19969;-75
2022/04/25 12:25:27;;;;;;;;;;;16.40;99.30;;;;;;5091955;28;19920;-76
2022/04/25 12:28:06;;;;;;;;;;;16.60;98.20;;;;;;5091867;28;19923;-77
2022/04/25 12:30:52;;;;;;;;;;;17.30;98.70;;;;;;5095945;28;19919;-75
2022/04/25 12:33:22;;;;;;;;;;;17.50;96.80;;;;;;5080068;28;19927;-76
2022/04/25 12:35:49;;;;;;;;;;;17.50;96.40;;;;;;5091904;28;19970;-80
2022/04/25 12:38:32;;;;;;;;;;;17.40;96.90;;;;;;5088129;28;19966;-82
2022/04/25 12:40:57;;;;;;;;;;;17.90;97.30;;;;;;5084028;28;19927;-81
2022/04/25 12:43:43;;;;;;;;;;;18.30;96.70;;;;;;5082081;28;19924;-80
2022/04/25 12:46:09;;;;;;;;;;;18.50;95.80;;;;;;5081540;28;19961;-77
2022/04/25 12:48:54;;;;;;;;;;;18.90;96.10;;;;;;5070837;28;20345;-79
2022/04/25 12:51:26;;;;;;;;;;;18.60;95.60;;;;;;5084370;28;19925;-81
2022/04/25 12:53:51;;;;;;;;;;;18.50;95.20;;;;;;5071899;28;20015;-85
2022/04/25 12:56:27;;;;;;;;;;;18.30;95.10;;;;;;5087978;28;20022;-78
2022/04/25 12:58:53;;;;;;;;;;;18.10;95.60;;;;;;5089129;28;19935;-74
2022/04/25 13:01:28;;;;;;;;;;;18.20;95.40;;;;;;5087613;28;20397;-81
2022/04/25 13:04:16;;;;;;;;;;;18.30;94.50;;;;;;5087684;28;19962;-79
2022/04/25 13:06:43;;;;;;;;;;;18.30;96.20;;;;;;5088214;28;19932;-80
2022/04/25 13:09:09;;;;;;;;;;;18.70;94.80;;;;;;5073962;28;20269;-76
2022/04/25 13:11:34;;;;;;;;;;;18.80;93.40;;;;;;5076697;28;19924;-75
2022/04/25 13:14:00;;;;;;;;;;;19.10;93.90;;;;;;5067621;28;19924;-75
2022/04/25 13:16:26;;;;;;;;;;;18.90;93.10;;;;;;5087161;28;19999;-70
2022/04/25 13:18:52;;;;;;;;;;;19.00;93.00;;;;;;5090909;28;20020;-75
2022/04/25 13:21:18;;;;;;;;;;;18.70;93.10;;;;;;5068609;28;19973;-77
2022/04/25 13:23:43;;;;;;;;;;;18.40;93.00;;;;;;5076846;28;19928;-73
2022/04/25 13:26:09;;;;;;;;;;;18.30;93.90;;;;;;5066571;28;20020;-69
2022/04/25 13:28:37;;;;;;;;;;;18.30;93.80;;;;;;5068384;28;19957;-70
2022/04/25 13:31:03;;;;;;;;;;;18.30;92.40;;;;;;5069315;28;19928;-75
2022/04/25 13:33:31;;;;;;;;;;;18.30;93.00;;;;;;5067278;28;19924;-69
2022/04/25 13:35:57;;;;;;;;;;;18.30;92.70;;;;;;5066850;28;19920;-78
2022/04/25 13:38:22;;;;;;;;;;;18.00;92.90;;;;;;5067675;28;19928;-78
2022/04/25 13:40:48;;;;;;;;;;;18.10;92.40;;;;;;5068512;28;19920;-75
2022/04/25 13:43:15;;;;;;;;;;;17.90;92.20;;;;;;5068620;28;20742;-81
2022/04/25 13:45:40;;;;;;;;;;;17.80;92.60;;;;;;5086805;28;19924;-73
2022/04/25 13:48:06;;;;;;;;;;;17.50;92.90;;;;;;5103635;28;19924;-72
2022/04/25 13:50:38;;;;;;;;;;;17.20;93.30;;;;;;5084371;28;19924;-71
2022/04/25 13:53:03;;;;;;;;;;;17.00;94.10;;;;;;5075195;28;19928;-73
2022/04/25 13:55:33;;;;;;;;;;;16.80;94.30;;;;;;5078611;28;20279;-77
2022/04/25 13:57:59;;;;;;;;;;;16.70;94.30;;;;;;5079844;28;19920;-78
2022/04/25 14:00:24;;;;;;;;;;;16.60;94.70;;;;;;5084769;28;19931;-78
2022/04/25 14:03:05;;;;;;;;;;;16.50;94.70;;;;;;5086803;28;20383;-74
2022/04/25 14:05:33;;;;;;;;;;;16.30;94.10;;;;;;5088732;28;19920;-83
2022/04/25 14:07:59;;;;;;;;;;;16.20;94.10;;;;;;5092909;28;20006;-78
2022/04/25 14:10:27;;;;;;;;;;;16.10;94.40;;;;;;5089625;28;19920;-80
2022/04/25 14:12:53;;;;;;;;;;;16.20;95.00;;;;;;5086089;28;19924;-79
2022/04/25 14:15:18;;;;;;;;;;;15.90;95.10;;;;;;5086010;28;19928;-79
2022/04/25 14:17:45;;;;;;;;;;;15.80;94.20;;;;;;5085192;28;19924;-78
2022/04/25 14:20:11;;;;;;;;;;;15.90;95.00;;;;;;5088318;28;19920;-76
2022/04/25 14:22:37;;;;;;;;;;;15.90;95.00;;;;;;5086220;28;20038;-75
2022/04/25 14:25:03;;;;;;;;;;;15.90;94.50;;;;;;5086768;28;19921;-74
2022/04/25 14:27:29;;;;;;;;;;;15.90;95.10;;;;;;5092243;28;19919;-77
2022/04/25 14:29:54;;;;;;;;;;;16.00;94.60;;;;;;5094134;28;20370;-77
2022/04/25 14:32:20;;;;;;;;;;;16.20;94.30;;;;;;5095835;28;19981;-77
2022/04/25 14:34:45;;;;;;;;;;;16.30;93.70;;;;;;5095913;28;20355;-76
2022/04/25 14:37:11;;;;;;;;;;;16.20;93.80;;;;;;5091980;28;19978;-76
2022/04/25 14:39:36;;;;;;;;;;;15.80;94.80;;;;;;5100331;28;19928;-71
2022/04/25 14:42:02;;;;;;;;;;;15.60;95.30;;;;;;5086174;28;19978;-71
2022/04/25 14:44:32;;;;;;;;;;;15.40;95.70;;;;;;5087440;28;19919;-77
2022/04/25 14:46:57;;;;;;;;;;;15.20;96.30;;;;;;5085679;28;19969;-73
2022/04/25 14:54:20;;;;;;;;;;;15.00;96.80;;;;;;5080353;28;19974;-75
2022/04/25 14:54:53;;;;;;;;;;;14.60;98.00;;;;;;5085364;28;19943;-77
2022/04/25 14:57:18;;;;;;;;;;;14.50;97.90;;;;;;5081147;28;19949;-75
2022/04/25 14:59:44;;;;;;;;;;;14.60;98.50;;;;;;5080510;28;19923;-73
2022/04/25 15:02:09;;;;;;;;;;;14.50;98.50;;;;;;5078586;28;19981;-73
2022/04/25 15:04:36;;;;;;;;;;;14.40;98.00;;;;;;5080983;28;20539;-79